sensor_id;sensor_type;location;lat;lon;timestamp;P1;durP1;ratioP1;P2;durP2;ratioP2
11797;SDS011;5956;51.428;6.682;2024-01-11T00:01:19;36.73;;;22.73;;
11797;SDS011;5956;51.428;6.682;2024-01-11T00:03:46;36.93;;;24.47;;
11797;SDS011;5956;51.428;6.682;2024-01-11T00:06:12;34.67;;;24.97;;
11797;SDS011;5956;51.428;6.682;2024-01-11T00:08:40;35.63;;;24.67;;
11797;SDS011;5956;51.428;6.682;2024-01-11T00:11:06;37.80;;;23.87;;
11797;SDS011;5956;51.428;6.682;2024-01-11T00:13:33;37.37;;;24.17;;
11797;SDS011;5956;51.428;6.682;2024-01-11T00:15:59;35.40;;;24.20;;
11797;SDS011;5956;51.428;6.682;2024-01-11T00:18:26;36.70;;;23.67;;
11797;SDS011;5956;51.428;6.682;2024-01-11T00:20:52;35.93;;;24.97;;
11797;SDS011;5956;51.428;6.682;2024-01-11T00:23:19;36.87;;;24.00;;
11797;SDS011;5956;51.428;6.682;2024-01-11T00:25:46;35.47;;;24.87;;
11797;SDS011;5956;51.428;6.682;2024-01-11T00:28:13;34.13;;;24.53;;
11797;SDS011;5956;51.428;6.682;2024-01-11T00:30:39;36.50;;;24.50;;
11797;SDS011;5956;51.428;6.682;2024-01-11T00:33:06;38.10;;;23.27;;
11797;SDS011;5956;51.428;6.682;2024-01-11T00:35:33;37.20;;;24.50;;
11797;SDS011;5956;51.428;6.682;2024-01-11T00:38:00;36.83;;;23.57;;
11797;SDS011;5956;51.428;6.682;2024-01-11T00:40:26;34.87;;;23.33;;
11797;SDS011;5956;51.428;6.682;2024-01-11T00:42:54;39.27;;;25.30;;
11797;SDS011;5956;51.428;6.682;2024-01-11T00:45:21;39.03;;;25.30;;
11797;SDS011;5956;51.428;6.682;2024-01-11T00:47:47;39.90;;;24.27;;
11797;SDS011;5956;51.428;6.682;2024-01-11T00:50:13;35.00;;;24.37;;
11797;SDS011;5956;51.428;6.682;2024-01-11T00:52:40;37.30;;;23.83;;
11797;SDS011;5956;51.428;6.682;2024-01-11T00:55:06;36.63;;;24.03;;
11797;SDS011;5956;51.428;6.682;2024-01-11T00:57:33;38.87;;;25.73;;
11797;SDS011;5956;51.428;6.682;2024-01-11T01:00:01;37.27;;;24.10;;
11797;SDS011;5956;51.428;6.682;2024-01-11T01:02:28;40.43;;;25.90;;
11797;SDS011;5956;51.428;6.682;2024-01-11T01:04:54;44.67;;;25.60;;
11797;SDS011;5956;51.428;6.682;2024-01-11T01:07:21;37.87;;;24.53;;
11797;SDS011;5956;51.428;6.682;2024-01-11T01:09:47;38.13;;;25.90;;
11797;SDS011;5956;51.428;6.682;2024-01-11T01:12:13;38.53;;;25.97;;
11797;SDS011;5956;51.428;6.682;2024-01-11T01:14:39;42.03;;;25.83;;
11797;SDS011;5956;51.428;6.682;2024-01-11T01:17:07;41.73;;;25.37;;
11797;SDS011;5956;51.428;6.682;2024-01-11T01:19:33;38.40;;;24.70;;
11797;SDS011;5956;51.428;6.682;2024-01-11T01:22:00;40.80;;;25.03;;
11797;SDS011;5956;51.428;6.682;2024-01-11T01:24:26;42.80;;;24.43;;
11797;SDS011;5956;51.428;6.682;2024-01-11T01:26:53;37.33;;;24.77;;
11797;SDS011;5956;51.428;6.682;2024-01-11T01:29:19;47.27;;;26.10;;
11797;SDS011;5956;51.428;6.682;2024-01-11T01:31:45;42.10;;;26.07;;
11797;SDS011;5956;51.428;6.682;2024-01-11T01:34:13;41.27;;;25.57;;
11797;SDS011;5956;51.428;6.682;2024-01-11T01:36:40;39.90;;;25.00;;
11797;SDS011;5956;51.428;6.682;2024-01-11T01:39:07;44.30;;;27.37;;
11797;SDS011;5956;51.428;6.682;2024-01-11T01:41:33;45.57;;;28.13;;
11797;SDS011;5956;51.428;6.682;2024-01-11T01:44:00;42.20;;;26.00;;
11797;SDS011;5956;51.428;6.682;2024-01-11T01:46:26;39.20;;;26.97;;
11797;SDS011;5956;51.428;6.682;2024-01-11T01:48:54;42.97;;;28.27;;
11797;SDS011;5956;51.428;6.682;2024-01-11T01:51:22;44.97;;;27.63;;
11797;SDS011;5956;51.428;6.682;2024-01-11T01:53:50;40.90;;;26.97;;
11797;SDS011;5956;51.428;6.682;2024-01-11T01:56:17;42.07;;;26.40;;
11797;SDS011;5956;51.428;6.682;2024-01-11T01:58:44;40.23;;;25.80;;
11797;SDS011;5956;51.428;6.682;2024-01-11T02:01:10;40.57;;;25.77;;
11797;SDS011;5956;51.428;6.682;2024-01-11T02:03:37;41.83;;;26.83;;
11797;SDS011;5956;51.428;6.682;2024-01-11T02:06:04;42.60;;;26.80;;
11797;SDS011;5956;51.428;6.682;2024-01-11T02:08:32;44.30;;;26.93;;
11797;SDS011;5956;51.428;6.682;2024-01-11T02:11:00;40.07;;;25.90;;
11797;SDS011;5956;51.428;6.682;2024-01-11T02:13:27;41.57;;;25.77;;
11797;SDS011;5956;51.428;6.682;2024-01-11T02:15:53;44.73;;;26.70;;
11797;SDS011;5956;51.428;6.682;2024-01-11T02:18:20;42.50;;;26.03;;
11797;SDS011;5956;51.428;6.682;2024-01-11T02:20:46;41.43;;;26.63;;
11797;SDS011;5956;51.428;6.682;2024-01-11T02:23:14;43.97;;;26.00;;
11797;SDS011;5956;51.428;6.682;2024-01-11T02:25:42;41.37;;;25.87;;
11797;SDS011;5956;51.428;6.682;2024-01-11T02:28:09;40.57;;;26.60;;
11797;SDS011;5956;51.428;6.682;2024-01-11T02:30:36;35.97;;;25.70;;
11797;SDS011;5956;51.428;6.682;2024-01-11T02:33:03;44.00;;;25.97;;
11797;SDS011;5956;51.428;6.682;2024-01-11T02:35:30;44.47;;;26.63;;
11797;SDS011;5956;51.428;6.682;2024-01-11T02:37:57;44.80;;;27.93;;
11797;SDS011;5956;51.428;6.682;2024-01-11T02:40:23;38.37;;;25.17;;
11797;SDS011;5956;51.428;6.682;2024-01-11T02:42:51;43.07;;;27.57;;
11797;SDS011;5956;51.428;6.682;2024-01-11T02:45:18;41.50;;;26.70;;
11797;SDS011;5956;51.428;6.682;2024-01-11T02:47:45;40.57;;;27.03;;
11797;SDS011;5956;51.428;6.682;2024-01-11T02:50:11;40.43;;;26.67;;
11797;SDS011;5956;51.428;6.682;2024-01-11T02:52:38;39.63;;;26.37;;
11797;SDS011;5956;51.428;6.682;2024-01-11T02:55:04;46.70;;;26.83;;
11797;SDS011;5956;51.428;6.682;2024-01-11T02:57:31;37.17;;;25.13;;
11797;SDS011;5956;51.428;6.682;2024-01-11T02:59:59;41.57;;;26.13;;
11797;SDS011;5956;51.428;6.682;2024-01-11T03:02:25;47.50;;;27.77;;
11797;SDS011;5956;51.428;6.682;2024-01-11T03:04:52;44.70;;;26.97;;
11797;SDS011;5956;51.428;6.682;2024-01-11T03:07:18;37.80;;;24.93;;
11797;SDS011;5956;51.428;6.682;2024-01-11T03:09:45;40.97;;;25.97;;
11797;SDS011;5956;51.428;6.682;2024-01-11T03:12:11;44.73;;;27.07;;
11797;SDS011;5956;51.428;6.682;2024-01-11T03:14:38;41.87;;;25.77;;
11797;SDS011;5956;51.428;6.682;2024-01-11T03:17:06;38.70;;;25.93;;
11797;SDS011;5956;51.428;6.682;2024-01-11T03:19:32;38.80;;;26.53;;
11797;SDS011;5956;51.428;6.682;2024-01-11T03:21:59;42.43;;;25.43;;
11797;SDS011;5956;51.428;6.682;2024-01-11T03:24:28;42.23;;;26.07;;
11797;SDS011;5956;51.428;6.682;2024-01-11T03:26:54;44.47;;;27.13;;
11797;SDS011;5956;51.428;6.682;2024-01-11T03:29:21;38.83;;;25.40;;
11797;SDS011;5956;51.428;6.682;2024-01-11T03:31:47;40.53;;;25.73;;
11797;SDS011;5956;51.428;6.682;2024-01-11T03:34:15;37.50;;;25.23;;
11797;SDS011;5956;51.428;6.682;2024-01-11T03:36:42;44.37;;;27.37;;
11797;SDS011;5956;51.428;6.682;2024-01-11T03:39:08;42.23;;;26.77;;
11797;SDS011;5956;51.428;6.682;2024-01-11T03:41:34;42.90;;;26.60;;
11797;SDS011;5956;51.428;6.682;2024-01-11T03:44:01;39.33;;;26.30;;
11797;SDS011;5956;51.428;6.682;2024-01-11T03:46:27;40.90;;;26.33;;
11797;SDS011;5956;51.428;6.682;2024-01-11T03:48:54;38.07;;;25.70;;
11797;SDS011;5956;51.428;6.682;2024-01-11T03:51:22;39.10;;;25.57;;
11797;SDS011;5956;51.428;6.682;2024-01-11T03:53:48;36.70;;;25.43;;
11797;SDS011;5956;51.428;6.682;2024-01-11T03:56:15;36.37;;;24.73;;
11797;SDS011;5956;51.428;6.682;2024-01-11T03:58:41;42.73;;;25.47;;
11797;SDS011;5956;51.428;6.682;2024-01-11T04:01:10;37.83;;;24.37;;
11797;SDS011;5956;51.428;6.682;2024-01-11T04:03:36;38.93;;;25.07;;
11797;SDS011;5956;51.428;6.682;2024-01-11T04:06:03;46.53;;;26.83;;
11797;SDS011;5956;51.428;6.682;2024-01-11T04:08:31;38.67;;;25.17;;
11797;SDS011;5956;51.428;6.682;2024-01-11T04:10:57;36.87;;;24.83;;
11797;SDS011;5956;51.428;6.682;2024-01-11T04:13:24;39.60;;;24.37;;
11797;SDS011;5956;51.428;6.682;2024-01-11T04:15:50;40.00;;;25.53;;
11797;SDS011;5956;51.428;6.682;2024-01-11T04:18:17;41.10;;;25.80;;
11797;SDS011;5956;51.428;6.682;2024-01-11T04:20:43;41.47;;;26.33;;
11797;SDS011;5956;51.428;6.682;2024-01-11T04:23:10;38.97;;;26.13;;
11797;SDS011;5956;51.428;6.682;2024-01-11T04:25:37;41.67;;;25.93;;
11797;SDS011;5956;51.428;6.682;2024-01-11T04:28:04;41.40;;;25.40;;
11797;SDS011;5956;51.428;6.682;2024-01-11T04:30:31;42.73;;;25.17;;
11797;SDS011;5956;51.428;6.682;2024-01-11T04:32:57;38.33;;;25.57;;
11797;SDS011;5956;51.428;6.682;2024-01-11T04:35:23;38.20;;;26.20;;
11797;SDS011;5956;51.428;6.682;2024-01-11T04:37:50;44.47;;;27.57;;
11797;SDS011;5956;51.428;6.682;2024-01-11T04:40:17;41.60;;;25.33;;
11797;SDS011;5956;51.428;6.682;2024-01-11T04:42:44;38.87;;;26.73;;
11797;SDS011;5956;51.428;6.682;2024-01-11T04:45:11;40.83;;;26.50;;
11797;SDS011;5956;51.428;6.682;2024-01-11T04:47:37;39.37;;;26.47;;
11797;SDS011;5956;51.428;6.682;2024-01-11T04:50:04;43.43;;;26.47;;
11797;SDS011;5956;51.428;6.682;2024-01-11T04:52:31;41.47;;;26.13;;
11797;SDS011;5956;51.428;6.682;2024-01-11T04:54:57;41.73;;;25.47;;
11797;SDS011;5956;51.428;6.682;2024-01-11T04:57:24;40.37;;;25.73;;
11797;SDS011;5956;51.428;6.682;2024-01-11T04:59:52;41.33;;;26.67;;
11797;SDS011;5956;51.428;6.682;2024-01-11T05:02:20;41.23;;;25.73;;
11797;SDS011;5956;51.428;6.682;2024-01-11T05:04:47;43.27;;;26.87;;
11797;SDS011;5956;51.428;6.682;2024-01-11T05:07:16;41.30;;;25.80;;
11797;SDS011;5956;51.428;6.682;2024-01-11T05:09:43;42.13;;;26.80;;
11797;SDS011;5956;51.428;6.682;2024-01-11T05:12:09;41.00;;;27.00;;
11797;SDS011;5956;51.428;6.682;2024-01-11T05:14:36;41.33;;;26.53;;
11797;SDS011;5956;51.428;6.682;2024-01-11T05:17:04;40.93;;;25.73;;
11797;SDS011;5956;51.428;6.682;2024-01-11T05:19:30;41.97;;;26.80;;
11797;SDS011;5956;51.428;6.682;2024-01-11T05:21:57;41.80;;;25.87;;
11797;SDS011;5956;51.428;6.682;2024-01-11T05:24:23;43.73;;;26.13;;
11797;SDS011;5956;51.428;6.682;2024-01-11T05:26:49;41.13;;;25.37;;
11797;SDS011;5956;51.428;6.682;2024-01-11T05:29:16;43.33;;;26.83;;
11797;SDS011;5956;51.428;6.682;2024-01-11T05:31:42;40.93;;;26.07;;
11797;SDS011;5956;51.428;6.682;2024-01-11T05:34:10;36.67;;;25.07;;
11797;SDS011;5956;51.428;6.682;2024-01-11T05:36:38;36.07;;;25.07;;
11797;SDS011;5956;51.428;6.682;2024-01-11T05:39:04;45.97;;;27.43;;
11797;SDS011;5956;51.428;6.682;2024-01-11T05:41:31;39.90;;;26.13;;
11797;SDS011;5956;51.428;6.682;2024-01-11T05:43:57;39.43;;;24.63;;
11797;SDS011;5956;51.428;6.682;2024-01-11T05:46:24;41.73;;;25.83;;
11797;SDS011;5956;51.428;6.682;2024-01-11T05:48:50;40.40;;;25.07;;
11797;SDS011;5956;51.428;6.682;2024-01-11T05:51:19;42.43;;;26.20;;
11797;SDS011;5956;51.428;6.682;2024-01-11T05:53:45;36.53;;;24.67;;
11797;SDS011;5956;51.428;6.682;2024-01-11T05:56:12;38.93;;;24.00;;
11797;SDS011;5956;51.428;6.682;2024-01-11T05:58:39;42.00;;;26.33;;
11797;SDS011;5956;51.428;6.682;2024-01-11T06:01:05;38.47;;;24.27;;
11797;SDS011;5956;51.428;6.682;2024-01-11T06:03:32;37.10;;;26.43;;
11797;SDS011;5956;51.428;6.682;2024-01-11T06:05:59;41.63;;;25.23;;
11797;SDS011;5956;51.428;6.682;2024-01-11T06:08:28;40.47;;;25.13;;
11797;SDS011;5956;51.428;6.682;2024-01-11T06:10:54;40.83;;;25.43;;
11797;SDS011;5956;51.428;6.682;2024-01-11T06:13:21;39.00;;;25.00;;
11797;SDS011;5956;51.428;6.682;2024-01-11T06:15:47;36.23;;;25.00;;
11797;SDS011;5956;51.428;6.682;2024-01-11T06:18:15;40.10;;;24.43;;
11797;SDS011;5956;51.428;6.682;2024-01-11T06:20:41;37.83;;;24.43;;
11797;SDS011;5956;51.428;6.682;2024-01-11T06:23:08;36.37;;;23.90;;
11797;SDS011;5956;51.428;6.682;2024-01-11T06:25:35;32.37;;;20.60;;
11797;SDS011;5956;51.428;6.682;2024-01-11T06:28:02;40.03;;;26.37;;
11797;SDS011;5956;51.428;6.682;2024-01-11T06:30:28;40.43;;;25.90;;
11797;SDS011;5956;51.428;6.682;2024-01-11T06:32:55;42.57;;;26.40;;
11797;SDS011;5956;51.428;6.682;2024-01-11T06:35:21;39.30;;;25.13;;
11797;SDS011;5956;51.428;6.682;2024-01-11T06:37:48;38.03;;;24.63;;
11797;SDS011;5956;51.428;6.682;2024-01-11T06:40:14;38.20;;;24.30;;
11797;SDS011;5956;51.428;6.682;2024-01-11T06:42:42;42.43;;;24.57;;
11797;SDS011;5956;51.428;6.682;2024-01-11T06:45:09;29.47;;;19.93;;
11797;SDS011;5956;51.428;6.682;2024-01-11T06:47:35;46.10;;;26.77;;
11797;SDS011;5956;51.428;6.682;2024-01-11T06:50:02;43.03;;;27.60;;
11797;SDS011;5956;51.428;6.682;2024-01-11T06:52:28;41.33;;;25.20;;
11797;SDS011;5956;51.428;6.682;2024-01-11T06:54:55;39.17;;;26.03;;
11797;SDS011;5956;51.428;6.682;2024-01-11T06:57:21;41.07;;;26.50;;
11797;SDS011;5956;51.428;6.682;2024-01-11T06:59:49;39.27;;;26.17;;
11797;SDS011;5956;51.428;6.682;2024-01-11T07:02:16;43.57;;;26.67;;
11797;SDS011;5956;51.428;6.682;2024-01-11T07:04:43;39.13;;;25.47;;
11797;SDS011;5956;51.428;6.682;2024-01-11T07:07:09;46.73;;;28.37;;
11797;SDS011;5956;51.428;6.682;2024-01-11T07:09:36;44.00;;;27.87;;
11797;SDS011;5956;51.428;6.682;2024-01-11T07:12:03;41.93;;;27.23;;
11797;SDS011;5956;51.428;6.682;2024-01-11T07:14:29;41.13;;;27.50;;
11797;SDS011;5956;51.428;6.682;2024-01-11T07:16:57;43.00;;;26.73;;
11797;SDS011;5956;51.428;6.682;2024-01-11T07:19:24;40.90;;;26.70;;
11797;SDS011;5956;51.428;6.682;2024-01-11T07:21:50;39.87;;;25.50;;
11797;SDS011;5956;51.428;6.682;2024-01-11T07:24:16;38.87;;;25.77;;
11797;SDS011;5956;51.428;6.682;2024-01-11T07:26:43;44.70;;;26.43;;
11797;SDS011;5956;51.428;6.682;2024-01-11T07:29:10;43.63;;;26.93;;
11797;SDS011;5956;51.428;6.682;2024-01-11T07:31:36;46.90;;;28.77;;
11797;SDS011;5956;51.428;6.682;2024-01-11T07:34:04;41.27;;;26.10;;
11797;SDS011;5956;51.428;6.682;2024-01-11T07:36:31;44.50;;;29.67;;
11797;SDS011;5956;51.428;6.682;2024-01-11T07:38:57;42.20;;;28.03;;
11797;SDS011;5956;51.428;6.682;2024-01-11T07:41:24;45.27;;;27.93;;
11797;SDS011;5956;51.428;6.682;2024-01-11T07:43:50;38.57;;;26.63;;
11797;SDS011;5956;51.428;6.682;2024-01-11T07:46:17;47.37;;;29.83;;
11797;SDS011;5956;51.428;6.682;2024-01-11T07:48:43;56.07;;;33.63;;
11797;SDS011;5956;51.428;6.682;2024-01-11T07:51:11;43.20;;;28.50;;
11797;SDS011;5956;51.428;6.682;2024-01-11T07:53:37;44.53;;;26.43;;
11797;SDS011;5956;51.428;6.682;2024-01-11T07:56:06;44.60;;;27.93;;
11797;SDS011;5956;51.428;6.682;2024-01-11T07:58:32;43.47;;;27.27;;
11797;SDS011;5956;51.428;6.682;2024-01-11T08:01:01;41.90;;;27.20;;
11797;SDS011;5956;51.428;6.682;2024-01-11T08:03:27;39.27;;;26.33;;
11797;SDS011;5956;51.428;6.682;2024-01-11T08:05:55;41.90;;;26.30;;
11797;SDS011;5956;51.428;6.682;2024-01-11T08:08:23;41.23;;;25.93;;
11797;SDS011;5956;51.428;6.682;2024-01-11T08:10:49;40.53;;;26.13;;
11797;SDS011;5956;51.428;6.682;2024-01-11T08:13:16;36.97;;;25.67;;
11797;SDS011;5956;51.428;6.682;2024-01-11T08:15:43;38.27;;;25.37;;
11797;SDS011;5956;51.428;6.682;2024-01-11T08:18:10;38.87;;;25.80;;
11797;SDS011;5956;51.428;6.682;2024-01-11T08:20:37;39.60;;;26.03;;
11797;SDS011;5956;51.428;6.682;2024-01-11T08:23:05;42.77;;;25.97;;
11797;SDS011;5956;51.428;6.682;2024-01-11T08:25:33;41.73;;;26.80;;
11797;SDS011;5956;51.428;6.682;2024-01-11T08:28:00;43.83;;;27.73;;
11797;SDS011;5956;51.428;6.682;2024-01-11T08:30:28;41.10;;;26.03;;
11797;SDS011;5956;51.428;6.682;2024-01-11T08:32:55;40.80;;;27.97;;
11797;SDS011;5956;51.428;6.682;2024-01-11T08:35:22;40.60;;;26.77;;
11797;SDS011;5956;51.428;6.682;2024-01-11T08:37:48;42.03;;;26.70;;
11797;SDS011;5956;51.428;6.682;2024-01-11T08:40:15;39.47;;;25.70;;
11797;SDS011;5956;51.428;6.682;2024-01-11T08:42:43;45.03;;;26.47;;
11797;SDS011;5956;51.428;6.682;2024-01-11T08:45:11;36.20;;;26.07;;
11797;SDS011;5956;51.428;6.682;2024-01-11T08:47:43;39.37;;;26.57;;
11797;SDS011;5956;51.428;6.682;2024-01-11T08:50:11;40.13;;;25.90;;
11797;SDS011;5956;51.428;6.682;2024-01-11T08:52:38;41.37;;;27.93;;
11797;SDS011;5956;51.428;6.682;2024-01-11T08:55:05;42.50;;;26.07;;
11797;SDS011;5956;51.428;6.682;2024-01-11T08:57:31;42.43;;;26.03;;
11797;SDS011;5956;51.428;6.682;2024-01-11T08:59:59;42.17;;;26.60;;
11797;SDS011;5956;51.428;6.682;2024-01-11T09:02:26;37.37;;;26.33;;
11797;SDS011;5956;51.428;6.682;2024-01-11T09:04:52;44.53;;;28.57;;
11797;SDS011;5956;51.428;6.682;2024-01-11T09:07:20;40.80;;;27.77;;
11797;SDS011;5956;51.428;6.682;2024-01-11T09:09:47;43.90;;;27.73;;
11797;SDS011;5956;51.428;6.682;2024-01-11T09:12:13;43.47;;;26.83;;
11797;SDS011;5956;51.428;6.682;2024-01-11T09:14:40;41.90;;;26.13;;
11797;SDS011;5956;51.428;6.682;2024-01-11T09:17:08;40.20;;;27.90;;
11797;SDS011;5956;51.428;6.682;2024-01-11T09:19:34;40.17;;;28.37;;
11797;SDS011;5956;51.428;6.682;2024-01-11T09:22:03;42.87;;;27.10;;
11797;SDS011;5956;51.428;6.682;2024-01-11T09:24:29;42.53;;;27.70;;
11797;SDS011;5956;51.428;6.682;2024-01-11T09:26:56;41.30;;;27.47;;
11797;SDS011;5956;51.428;6.682;2024-01-11T09:29:22;44.00;;;28.57;;
11797;SDS011;5956;51.428;6.682;2024-01-11T09:31:49;43.47;;;28.67;;
11797;SDS011;5956;51.428;6.682;2024-01-11T09:34:16;42.10;;;27.30;;
11797;SDS011;5956;51.428;6.682;2024-01-11T09:36:43;38.73;;;27.70;;
11797;SDS011;5956;51.428;6.682;2024-01-11T09:39:10;43.73;;;27.07;;
11797;SDS011;5956;51.428;6.682;2024-01-11T09:41:38;38.50;;;28.63;;
11797;SDS011;5956;51.428;6.682;2024-01-11T09:44:08;43.03;;;28.43;;
11797;SDS011;5956;51.428;6.682;2024-01-11T09:46:35;44.77;;;27.70;;
11797;SDS011;5956;51.428;6.682;2024-01-11T09:49:02;38.77;;;26.30;;
11797;SDS011;5956;51.428;6.682;2024-01-11T09:51:30;46.30;;;28.53;;
11797;SDS011;5956;51.428;6.682;2024-01-11T09:53:59;42.03;;;28.40;;
11797;SDS011;5956;51.428;6.682;2024-01-11T09:56:26;39.17;;;27.50;;
11797;SDS011;5956;51.428;6.682;2024-01-11T09:58:53;35.60;;;24.47;;
11797;SDS011;5956;51.428;6.682;2024-01-11T10:01:20;38.00;;;27.03;;
11797;SDS011;5956;51.428;6.682;2024-01-11T10:03:47;36.73;;;26.93;;
11797;SDS011;5956;51.428;6.682;2024-01-11T10:06:13;39.07;;;28.70;;
11797;SDS011;5956;51.428;6.682;2024-01-11T10:08:42;39.47;;;26.30;;
11797;SDS011;5956;51.428;6.682;2024-01-11T10:11:08;40.53;;;27.33;;
11797;SDS011;5956;51.428;6.682;2024-01-11T10:13:35;41.53;;;26.97;;
11797;SDS011;5956;51.428;6.682;2024-01-11T10:16:06;38.63;;;27.70;;
11797;SDS011;5956;51.428;6.682;2024-01-11T10:18:33;41.20;;;26.93;;
11797;SDS011;5956;51.428;6.682;2024-01-11T10:20:59;42.23;;;27.70;;
11797;SDS011;5956;51.428;6.682;2024-01-11T10:23:26;39.87;;;29.10;;
11797;SDS011;5956;51.428;6.682;2024-01-11T10:25:55;42.30;;;29.13;;
11797;SDS011;5956;51.428;6.682;2024-01-11T10:28:22;38.07;;;26.33;;
11797;SDS011;5956;51.428;6.682;2024-01-11T10:30:50;38.77;;;26.43;;
11797;SDS011;5956;51.428;6.682;2024-01-11T10:33:18;34.73;;;26.57;;
11797;SDS011;5956;51.428;6.682;2024-01-11T10:35:45;36.47;;;26.07;;
11797;SDS011;5956;51.428;6.682;2024-01-11T10:38:13;38.17;;;26.60;;
11797;SDS011;5956;51.428;6.682;2024-01-11T10:40:40;34.87;;;25.33;;
11797;SDS011;5956;51.428;6.682;2024-01-11T10:43:09;40.77;;;26.87;;
11797;SDS011;5956;51.428;6.682;2024-01-11T10:45:37;39.07;;;26.63;;
11797;SDS011;5956;51.428;6.682;2024-01-11T10:48:06;35.67;;;25.80;;
11797;SDS011;5956;51.428;6.682;2024-01-11T10:50:34;39.10;;;26.80;;
11797;SDS011;5956;51.428;6.682;2024-01-11T10:53:02;39.43;;;26.57;;
11797;SDS011;5956;51.428;6.682;2024-01-11T10:55:30;36.73;;;25.47;;
11797;SDS011;5956;51.428;6.682;2024-01-11T10:57:59;38.00;;;25.47;;
11797;SDS011;5956;51.428;6.682;2024-01-11T11:00:28;42.53;;;28.67;;
11797;SDS011;5956;51.428;6.682;2024-01-11T11:02:55;39.70;;;27.50;;
11797;SDS011;5956;51.428;6.682;2024-01-11T11:05:21;37.07;;;27.60;;
11797;SDS011;5956;51.428;6.682;2024-01-11T11:07:49;23.80;;;19.43;;
11797;SDS011;5956;51.428;6.682;2024-01-11T11:10:16;24.70;;;18.33;;
11797;SDS011;5956;51.428;6.682;2024-01-11T11:12:43;24.30;;;17.53;;
11797;SDS011;5956;51.428;6.682;2024-01-11T11:15:11;29.37;;;24.57;;
11797;SDS011;5956;51.428;6.682;2024-01-11T11:17:39;30.97;;;23.73;;
11797;SDS011;5956;51.428;6.682;2024-01-11T11:20:07;33.13;;;23.83;;
11797;SDS011;5956;51.428;6.682;2024-01-11T11:22:34;28.00;;;22.33;;
11797;SDS011;5956;51.428;6.682;2024-01-11T11:25:04;30.87;;;24.27;;
11797;SDS011;5956;51.428;6.682;2024-01-11T11:27:34;31.97;;;23.13;;
11797;SDS011;5956;51.428;6.682;2024-01-11T11:30:01;30.07;;;22.67;;
11797;SDS011;5956;51.428;6.682;2024-01-11T11:32:35;32.20;;;22.93;;
11797;SDS011;5956;51.428;6.682;2024-01-11T11:35:04;31.70;;;22.93;;
11797;SDS011;5956;51.428;6.682;2024-01-11T11:37:30;32.17;;;23.37;;
11797;SDS011;5956;51.428;6.682;2024-01-11T11:39:58;30.80;;;24.30;;
11797;SDS011;5956;51.428;6.682;2024-01-11T11:42:24;34.30;;;24.43;;
11797;SDS011;5956;51.428;6.682;2024-01-11T11:44:51;31.80;;;24.27;;
11797;SDS011;5956;51.428;6.682;2024-01-11T11:47:21;32.70;;;23.83;;
11797;SDS011;5956;51.428;6.682;2024-01-11T11:49:57;29.43;;;24.67;;
11797;SDS011;5956;51.428;6.682;2024-01-11T11:52:26;32.90;;;23.77;;
11797;SDS011;5956;51.428;6.682;2024-01-11T11:54:53;32.73;;;24.37;;
11797;SDS011;5956;51.428;6.682;2024-01-11T11:57:20;32.53;;;23.27;;
11797;SDS011;5956;51.428;6.682;2024-01-11T11:59:48;34.50;;;25.37;;
11797;SDS011;5956;51.428;6.682;2024-01-11T12:02:16;30.77;;;23.30;;
11797;SDS011;5956;51.428;6.682;2024-01-11T12:04:46;32.40;;;24.87;;
11797;SDS011;5956;51.428;6.682;2024-01-11T12:07:12;33.70;;;24.67;;
11797;SDS011;5956;51.428;6.682;2024-01-11T12:09:40;30.50;;;24.07;;
11797;SDS011;5956;51.428;6.682;2024-01-11T12:12:06;33.50;;;24.63;;
11797;SDS011;5956;51.428;6.682;2024-01-11T12:14:33;30.80;;;23.87;;
11797;SDS011;5956;51.428;6.682;2024-01-11T12:17:00;32.13;;;23.60;;
11797;SDS011;5956;51.428;6.682;2024-01-11T12:19:27;37.57;;;26.07;;
11797;SDS011;5956;51.428;6.682;2024-01-11T12:21:54;34.63;;;23.90;;
11797;SDS011;5956;51.428;6.682;2024-01-11T12:24:20;27.43;;;21.80;;
11797;SDS011;5956;51.428;6.682;2024-01-11T12:26:49;32.40;;;22.90;;
11797;SDS011;5956;51.428;6.682;2024-01-11T12:29:17;31.77;;;22.47;;
11797;SDS011;5956;51.428;6.682;2024-01-11T12:31:43;30.77;;;22.67;;
11797;SDS011;5956;51.428;6.682;2024-01-11T12:34:10;30.87;;;23.00;;
11797;SDS011;5956;51.428;6.682;2024-01-11T12:36:37;30.57;;;21.27;;
11797;SDS011;5956;51.428;6.682;2024-01-11T12:39:04;30.63;;;22.33;;
11797;SDS011;5956;51.428;6.682;2024-01-11T12:41:31;29.30;;;21.60;;
11797;SDS011;5956;51.428;6.682;2024-01-11T12:43:59;29.30;;;21.37;;
11797;SDS011;5956;51.428;6.682;2024-01-11T12:46:27;28.93;;;21.70;;
11797;SDS011;5956;51.428;6.682;2024-01-11T12:48:53;27.77;;;20.63;;
11797;SDS011;5956;51.428;6.682;2024-01-11T12:51:20;27.93;;;21.13;;
11797;SDS011;5956;51.428;6.682;2024-01-11T12:53:46;28.07;;;20.17;;
11797;SDS011;5956;51.428;6.682;2024-01-11T12:56:15;24.40;;;18.00;;
11797;SDS011;5956;51.428;6.682;2024-01-11T12:58:41;27.17;;;20.40;;
11797;SDS011;5956;51.428;6.682;2024-01-11T13:01:09;23.67;;;18.47;;
11797;SDS011;5956;51.428;6.682;2024-01-11T13:03:39;27.80;;;19.57;;
11797;SDS011;5956;51.428;6.682;2024-01-11T13:06:09;22.27;;;17.40;;
11797;SDS011;5956;51.428;6.682;2024-01-11T13:08:39;22.77;;;17.53;;
11797;SDS011;5956;51.428;6.682;2024-01-11T13:11:07;24.20;;;18.23;;
11797;SDS011;5956;51.428;6.682;2024-01-11T13:13:34;25.63;;;18.10;;
11797;SDS011;5956;51.428;6.682;2024-01-11T13:16:01;23.77;;;17.43;;
11797;SDS011;5956;51.428;6.682;2024-01-11T13:18:32;23.77;;;17.87;;
11797;SDS011;5956;51.428;6.682;2024-01-11T13:20:58;22.17;;;16.27;;
11797;SDS011;5956;51.428;6.682;2024-01-11T13:23:25;21.63;;;16.93;;
11797;SDS011;5956;51.428;6.682;2024-01-11T13:25:51;20.07;;;17.20;;
11797;SDS011;5956;51.428;6.682;2024-01-11T13:28:18;22.37;;;17.40;;
11797;SDS011;5956;51.428;6.682;2024-01-11T13:30:47;22.53;;;17.20;;
11797;SDS011;5956;51.428;6.682;2024-01-11T13:33:16;21.70;;;16.83;;
11797;SDS011;5956;51.428;6.682;2024-01-11T13:35:44;23.30;;;17.43;;
11797;SDS011;5956;51.428;6.682;2024-01-11T13:38:11;23.03;;;17.13;;
11797;SDS011;5956;51.428;6.682;2024-01-11T13:40:38;22.47;;;17.43;;
11797;SDS011;5956;51.428;6.682;2024-01-11T13:43:05;23.77;;;17.60;;
11797;SDS011;5956;51.428;6.682;2024-01-11T13:45:32;25.40;;;17.80;;
11797;SDS011;5956;51.428;6.682;2024-01-11T13:48:01;23.60;;;17.03;;
11797;SDS011;5956;51.428;6.682;2024-01-11T13:50:29;23.77;;;16.90;;
11797;SDS011;5956;51.428;6.682;2024-01-11T13:52:57;21.07;;;17.30;;
11797;SDS011;5956;51.428;6.682;2024-01-11T13:55:23;20.87;;;16.90;;
11797;SDS011;5956;51.428;6.682;2024-01-11T13:57:50;21.77;;;16.07;;
11797;SDS011;5956;51.428;6.682;2024-01-11T14:00:17;23.27;;;16.43;;
11797;SDS011;5956;51.428;6.682;2024-01-11T14:02:44;20.53;;;16.17;;
11797;SDS011;5956;51.428;6.682;2024-01-11T14:05:12;24.93;;;18.93;;
11797;SDS011;5956;51.428;6.682;2024-01-11T14:07:40;27.10;;;18.07;;
11797;SDS011;5956;51.428;6.682;2024-01-11T14:10:08;23.37;;;17.13;;
11797;SDS011;5956;51.428;6.682;2024-01-11T14:12:35;19.70;;;15.57;;
11797;SDS011;5956;51.428;6.682;2024-01-11T14:15:02;24.40;;;17.13;;
11797;SDS011;5956;51.428;6.682;2024-01-11T14:17:29;23.67;;;17.00;;
11797;SDS011;5956;51.428;6.682;2024-01-11T14:19:55;22.27;;;16.43;;
11797;SDS011;5956;51.428;6.682;2024-01-11T14:22:22;23.63;;;16.43;;
11797;SDS011;5956;51.428;6.682;2024-01-11T14:24:49;20.77;;;16.20;;
11797;SDS011;5956;51.428;6.682;2024-01-11T14:27:17;26.00;;;17.80;;
11797;SDS011;5956;51.428;6.682;2024-01-11T14:29:43;22.90;;;16.77;;
11797;SDS011;5956;51.428;6.682;2024-01-11T14:32:10;21.97;;;16.77;;